sensor_id;sensor_type;location;lat;lon;timestamp;P1;durP1;ratioP1;P2;durP2;ratioP2
42972;SDS011;28610;51.214;6.962;2023-04-01T00:01:24;9.83;;;3.70;;
42972;SDS011;28610;51.214;6.962;2023-04-01T00:04:10;7.80;;;3.10;;
42972;SDS011;28610;51.214;6.962;2023-04-01T00:06:56;8.00;;;3.47;;
42972;SDS011;28610;51.214;6.962;2023-04-01T00:09:41;6.90;;;2.70;;
42972;SDS011;28610;51.214;6.962;2023-04-01T00:12:27;6.63;;;2.70;;
42972;SDS011;28610;51.214;6.962;2023-04-01T00:15:13;5.17;;;2.70;;
42972;SDS011;28610;51.214;6.962;2023-04-01T00:17:59;9.10;;;2.90;;
42972;SDS011;28610;51.214;6.962;2023-04-01T00:20:47;6.40;;;3.10;;
42972;SDS011;28610;51.214;6.962;2023-04-01T00:23:33;3.80;;;2.50;;
42972;SDS011;28610;51.214;6.962;2023-04-01T00:26:20;3.80;;;2.67;;
42972;SDS011;28610;51.214;6.962;2023-04-01T00:29:05;5.67;;;2.80;;
42972;SDS011;28610;51.214;6.962;2023-04-01T00:31:51;5.27;;;2.90;;
42972;SDS011;28610;51.214;6.962;2023-04-01T00:34:36;3.47;;;2.50;;
42972;SDS011;28610;51.214;6.962;2023-04-01T00:37:24;4.37;;;2.80;;
42972;SDS011;28610;51.214;6.962;2023-04-01T00:40:17;5.73;;;2.63;;
42972;SDS011;28610;51.214;6.962;2023-04-01T00:43:09;4.90;;;2.80;;
42972;SDS011;28610;51.214;6.962;2023-04-01T00:45:56;4.43;;;2.50;;
42972;SDS011;28610;51.214;6.962;2023-04-01T00:48:43;5.43;;;2.63;;
42972;SDS011;28610;51.214;6.962;2023-04-01T00:51:29;5.60;;;2.63;;
42972;SDS011;28610;51.214;6.962;2023-04-01T00:54:16;3.50;;;2.57;;
42972;SDS011;28610;51.214;6.962;2023-04-01T00:57:05;4.27;;;2.60;;
42972;SDS011;28610;51.214;6.962;2023-04-01T00:59:52;3.23;;;2.80;;
42972;SDS011;28610;51.214;6.962;2023-04-01T01:02:39;4.70;;;2.43;;
42972;SDS011;28610;51.214;6.962;2023-04-01T01:05:29;7.47;;;2.57;;
42972;SDS011;28610;51.214;6.962;2023-04-01T01:08:20;6.20;;;2.60;;
42972;SDS011;28610;51.214;6.962;2023-04-01T01:11:10;4.63;;;2.60;;
42972;SDS011;28610;51.214;6.962;2023-04-01T01:13:57;4.00;;;2.60;;
42972;SDS011;28610;51.214;6.962;2023-04-01T01:16:46;7.33;;;2.70;;
42972;SDS011;28610;51.214;6.962;2023-04-01T01:19:45;8.97;;;2.80;;
42972;SDS011;28610;51.214;6.962;2023-04-01T01:22:39;6.40;;;2.50;;
42972;SDS011;28610;51.214;6.962;2023-04-01T01:25:32;7.40;;;2.97;;
42972;SDS011;28610;51.214;6.962;2023-04-01T01:28:29;5.90;;;2.60;;
42972;SDS011;28610;51.214;6.962;2023-04-01T01:31:20;4.77;;;2.67;;
42972;SDS011;28610;51.214;6.962;2023-04-01T01:34:11;6.30;;;3.10;;
42972;SDS011;28610;51.214;6.962;2023-04-01T01:37:02;5.20;;;2.70;;
42972;SDS011;28610;51.214;6.962;2023-04-01T01:39:52;5.47;;;2.90;;
42972;SDS011;28610;51.214;6.962;2023-04-01T01:42:39;4.10;;;2.60;;
42972;SDS011;28610;51.214;6.962;2023-04-01T01:45:26;5.77;;;2.70;;
42972;SDS011;28610;51.214;6.962;2023-04-01T01:48:13;6.27;;;3.10;;
42972;SDS011;28610;51.214;6.962;2023-04-01T01:51:00;3.00;;;2.47;;
42972;SDS011;28610;51.214;6.962;2023-04-01T01:53:47;7.47;;;2.70;;
42972;SDS011;28610;51.214;6.962;2023-04-01T01:56:33;5.10;;;2.70;;
42972;SDS011;28610;51.214;6.962;2023-04-01T01:59:20;2.93;;;2.60;;
42972;SDS011;28610;51.214;6.962;2023-04-01T02:02:06;6.10;;;2.70;;
42972;SDS011;28610;51.214;6.962;2023-04-01T02:04:52;4.77;;;2.60;;
42972;SDS011;28610;51.214;6.962;2023-04-01T02:07:38;3.23;;;2.60;;
42972;SDS011;28610;51.214;6.962;2023-04-01T02:10:25;5.33;;;2.43;;
42972;SDS011;28610;51.214;6.962;2023-04-01T02:13:14;7.03;;;2.90;;
42972;SDS011;28610;51.214;6.962;2023-04-01T02:16:03;3.97;;;2.50;;
42972;SDS011;28610;51.214;6.962;2023-04-01T02:18:51;2.83;;;2.40;;
42972;SDS011;28610;51.214;6.962;2023-04-01T02:21:38;4.67;;;2.70;;
42972;SDS011;28610;51.214;6.962;2023-04-01T02:24:24;5.17;;;2.70;;
42972;SDS011;28610;51.214;6.962;2023-04-01T02:27:13;4.30;;;2.70;;
42972;SDS011;28610;51.214;6.962;2023-04-01T02:29:59;5.37;;;2.80;;
42972;SDS011;28610;51.214;6.962;2023-04-01T02:32:45;4.23;;;2.73;;
42972;SDS011;28610;51.214;6.962;2023-04-01T02:35:32;3.87;;;2.60;;
42972;SDS011;28610;51.214;6.962;2023-04-01T02:38:18;3.50;;;2.70;;
42972;SDS011;28610;51.214;6.962;2023-04-01T02:41:04;3.43;;;3.10;;
42972;SDS011;28610;51.214;6.962;2023-04-01T02:43:51;4.53;;;2.73;;
42972;SDS011;28610;51.214;6.962;2023-04-01T02:46:37;2.60;;;2.40;;
42972;SDS011;28610;51.214;6.962;2023-04-01T02:49:22;4.60;;;2.63;;
42972;SDS011;28610;51.214;6.962;2023-04-01T02:52:08;4.07;;;2.57;;
42972;SDS011;28610;51.214;6.962;2023-04-01T02:54:54;6.23;;;2.60;;
42972;SDS011;28610;51.214;6.962;2023-04-01T02:57:40;3.40;;;2.50;;
42972;SDS011;28610;51.214;6.962;2023-04-01T03:00:27;6.20;;;2.50;;
42972;SDS011;28610;51.214;6.962;2023-04-01T03:03:13;4.90;;;2.60;;
42972;SDS011;28610;51.214;6.962;2023-04-01T03:06:03;4.07;;;2.43;;
42972;SDS011;28610;51.214;6.962;2023-04-01T03:08:49;4.63;;;2.40;;
42972;SDS011;28610;51.214;6.962;2023-04-01T03:11:35;4.33;;;2.67;;
42972;SDS011;28610;51.214;6.962;2023-04-01T03:14:20;4.07;;;2.70;;
42972;SDS011;28610;51.214;6.962;2023-04-01T03:17:07;3.47;;;2.90;;
42972;SDS011;28610;51.214;6.962;2023-04-01T03:19:54;4.43;;;2.70;;
42972;SDS011;28610;51.214;6.962;2023-04-01T03:22:39;6.23;;;2.70;;
42972;SDS011;28610;51.214;6.962;2023-04-01T03:25:25;6.47;;;2.63;;
42972;SDS011;28610;51.214;6.962;2023-04-01T03:28:12;3.43;;;2.30;;
42972;SDS011;28610;51.214;6.962;2023-04-01T03:30:58;4.20;;;2.30;;
42972;SDS011;28610;51.214;6.962;2023-04-01T03:33:45;2.57;;;2.30;;
42972;SDS011;28610;51.214;6.962;2023-04-01T03:36:31;2.53;;;2.33;;
42972;SDS011;28610;51.214;6.962;2023-04-01T03:39:16;4.07;;;2.40;;
42972;SDS011;28610;51.214;6.962;2023-04-01T03:42:02;4.13;;;2.43;;
42972;SDS011;28610;51.214;6.962;2023-04-01T03:44:49;3.80;;;2.50;;
42972;SDS011;28610;51.214;6.962;2023-04-01T03:47:35;2.73;;;2.30;;
42972;SDS011;28610;51.214;6.962;2023-04-01T03:50:22;2.50;;;2.30;;
42972;SDS011;28610;51.214;6.962;2023-04-01T03:53:07;4.00;;;2.60;;
42972;SDS011;28610;51.214;6.962;2023-04-01T03:55:53;3.50;;;2.60;;
42972;SDS011;28610;51.214;6.962;2023-04-01T03:58:39;2.70;;;2.50;;
42972;SDS011;28610;51.214;6.962;2023-04-01T04:01:25;2.97;;;2.50;;
42972;SDS011;28610;51.214;6.962;2023-04-01T04:04:10;3.63;;;2.60;;
42972;SDS011;28610;51.214;6.962;2023-04-01T04:06:59;2.77;;;2.50;;
42972;SDS011;28610;51.214;6.962;2023-04-01T04:09:45;7.93;;;2.90;;
42972;SDS011;28610;51.214;6.962;2023-04-01T04:12:31;3.17;;;2.83;;
42972;SDS011;28610;51.214;6.962;2023-04-01T04:15:17;6.87;;;3.43;;
42972;SDS011;28610;51.214;6.962;2023-04-01T04:18:03;2.97;;;2.70;;
42972;SDS011;28610;51.214;6.962;2023-04-01T04:20:49;4.63;;;2.70;;
42972;SDS011;28610;51.214;6.962;2023-04-01T04:23:35;3.17;;;2.73;;
42972;SDS011;28610;51.214;6.962;2023-04-01T04:26:21;4.63;;;2.63;;
42972;SDS011;28610;51.214;6.962;2023-04-01T04:29:06;5.60;;;2.83;;
42972;SDS011;28610;51.214;6.962;2023-04-01T04:31:52;2.87;;;2.67;;
42972;SDS011;28610;51.214;6.962;2023-04-01T04:34:37;3.10;;;2.80;;
42972;SDS011;28610;51.214;6.962;2023-04-01T04:37:23;5.00;;;3.07;;
42972;SDS011;28610;51.214;6.962;2023-04-01T04:40:11;5.17;;;2.97;;
42972;SDS011;28610;51.214;6.962;2023-04-01T04:42:57;3.40;;;2.90;;
42972;SDS011;28610;51.214;6.962;2023-04-01T04:45:42;3.73;;;3.00;;
42972;SDS011;28610;51.214;6.962;2023-04-01T04:48:28;3.63;;;2.90;;
42972;SDS011;28610;51.214;6.962;2023-04-01T04:51:14;3.83;;;3.07;;
42972;SDS011;28610;51.214;6.962;2023-04-01T04:54:00;4.80;;;2.80;;
42972;SDS011;28610;51.214;6.962;2023-04-01T04:56:47;4.83;;;3.00;;
42972;SDS011;28610;51.214;6.962;2023-04-01T04:59:32;3.83;;;2.90;;
42972;SDS011;28610;51.214;6.962;2023-04-01T05:02:18;5.73;;;3.10;;
42972;SDS011;28610;51.214;6.962;2023-04-01T05:05:04;9.03;;;3.10;;
42972;SDS011;28610;51.214;6.962;2023-04-01T05:07:50;4.10;;;2.93;;
42972;SDS011;28610;51.214;6.962;2023-04-01T05:10:35;4.33;;;3.40;;
42972;SDS011;28610;51.214;6.962;2023-04-01T05:13:22;3.63;;;3.00;;
42972;SDS011;28610;51.214;6.962;2023-04-01T05:16:08;5.63;;;3.30;;
42972;SDS011;28610;51.214;6.962;2023-04-01T05:18:54;5.33;;;3.30;;
42972;SDS011;28610;51.214;6.962;2023-04-01T05:21:39;4.13;;;3.20;;
42972;SDS011;28610;51.214;6.962;2023-04-01T05:24:25;6.00;;;3.70;;
42972;SDS011;28610;51.214;6.962;2023-04-01T05:27:10;5.63;;;3.70;;
42972;SDS011;28610;51.214;6.962;2023-04-01T05:29:57;7.00;;;3.73;;
42972;SDS011;28610;51.214;6.962;2023-04-01T05:32:43;5.27;;;3.70;;
42972;SDS011;28610;51.214;6.962;2023-04-01T05:35:28;5.33;;;3.63;;
42972;SDS011;28610;51.214;6.962;2023-04-01T05:38:14;6.47;;;4.07;;
42972;SDS011;28610;51.214;6.962;2023-04-01T05:41:00;5.53;;;3.93;;
42972;SDS011;28610;51.214;6.962;2023-04-01T05:43:46;8.03;;;4.07;;
42972;SDS011;28610;51.214;6.962;2023-04-01T05:46:32;5.13;;;4.07;;
42972;SDS011;28610;51.214;6.962;2023-04-01T05:49:18;5.40;;;3.90;;
42972;SDS011;28610;51.214;6.962;2023-04-01T05:52:03;5.10;;;4.00;;
42972;SDS011;28610;51.214;6.962;2023-04-01T05:54:49;7.43;;;4.60;;
42972;SDS011;28610;51.214;6.962;2023-04-01T05:57:35;9.80;;;4.03;;
42972;SDS011;28610;51.214;6.962;2023-04-01T06:00:20;5.50;;;4.03;;
42972;SDS011;28610;51.214;6.962;2023-04-01T06:03:07;7.60;;;4.60;;
42972;SDS011;28610;51.214;6.962;2023-04-01T06:05:53;7.43;;;4.57;;
42972;SDS011;28610;51.214;6.962;2023-04-01T06:08:39;5.47;;;4.23;;
42972;SDS011;28610;51.214;6.962;2023-04-01T06:11:27;8.93;;;4.87;;
42972;SDS011;28610;51.214;6.962;2023-04-01T06:14:19;9.40;;;5.30;;
42972;SDS011;28610;51.214;6.962;2023-04-01T06:17:12;9.63;;;5.13;;
42972;SDS011;28610;51.214;6.962;2023-04-01T06:20:06;6.93;;;4.70;;
42972;SDS011;28610;51.214;6.962;2023-04-01T06:23:02;7.20;;;4.87;;
42972;SDS011;28610;51.214;6.962;2023-04-01T06:25:53;8.27;;;4.90;;
42972;SDS011;28610;51.214;6.962;2023-04-01T06:28:56;8.17;;;5.47;;
42972;SDS011;28610;51.214;6.962;2023-04-01T06:31:47;9.27;;;5.30;;
42972;SDS011;28610;51.214;6.962;2023-04-01T06:34:39;10.17;;;5.00;;
42972;SDS011;28610;51.214;6.962;2023-04-01T06:37:40;8.97;;;5.03;;
42972;SDS011;28610;51.214;6.962;2023-04-01T06:40:41;8.40;;;5.57;;
42972;SDS011;28610;51.214;6.962;2023-04-01T06:43:33;9.43;;;5.37;;
42972;SDS011;28610;51.214;6.962;2023-04-01T06:46:23;8.67;;;5.13;;
42972;SDS011;28610;51.214;6.962;2023-04-01T06:49:17;8.47;;;5.30;;
42972;SDS011;28610;51.214;6.962;2023-04-01T06:52:08;12.00;;;5.43;;
42972;SDS011;28610;51.214;6.962;2023-04-01T06:55:00;7.87;;;5.50;;
42972;SDS011;28610;51.214;6.962;2023-04-01T06:57:47;9.87;;;5.73;;
42972;SDS011;28610;51.214;6.962;2023-04-01T07:00:35;9.23;;;6.07;;
42972;SDS011;28610;51.214;6.962;2023-04-01T07:03:23;9.37;;;5.40;;
42972;SDS011;28610;51.214;6.962;2023-04-01T07:06:14;7.97;;;5.27;;
42972;SDS011;28610;51.214;6.962;2023-04-01T07:09:04;9.80;;;5.60;;
42972;SDS011;28610;51.214;6.962;2023-04-01T07:11:52;8.57;;;5.43;;
42972;SDS011;28610;51.214;6.962;2023-04-01T07:14:39;9.43;;;5.47;;
42972;SDS011;28610;51.214;6.962;2023-04-01T07:17:27;11.00;;;5.57;;
42972;SDS011;28610;51.214;6.962;2023-04-01T07:20:16;10.77;;;5.23;;
42972;SDS011;28610;51.214;6.962;2023-04-01T07:23:05;8.70;;;5.67;;
42972;SDS011;28610;51.214;6.962;2023-04-01T07:25:52;8.37;;;5.00;;
42972;SDS011;28610;51.214;6.962;2023-04-01T07:28:40;8.27;;;5.23;;
42972;SDS011;28610;51.214;6.962;2023-04-01T07:31:30;7.77;;;4.90;;
42972;SDS011;28610;51.214;6.962;2023-04-01T07:34:19;8.90;;;5.30;;
42972;SDS011;28610;51.214;6.962;2023-04-01T07:37:08;8.60;;;5.37;;
42972;SDS011;28610;51.214;6.962;2023-04-01T07:39:56;8.00;;;5.20;;
42972;SDS011;28610;51.214;6.962;2023-04-01T07:42:49;7.23;;;5.20;;
42972;SDS011;28610;51.214;6.962;2023-04-01T07:45:40;8.17;;;5.13;;
42972;SDS011;28610;51.214;6.962;2023-04-01T07:48:28;11.23;;;6.37;;
42972;SDS011;28610;51.214;6.962;2023-04-01T07:51:17;7.83;;;5.53;;
42972;SDS011;28610;51.214;6.962;2023-04-01T07:54:05;8.73;;;5.53;;
42972;SDS011;28610;51.214;6.962;2023-04-01T07:56:55;8.43;;;5.13;;
42972;SDS011;28610;51.214;6.962;2023-04-01T07:59:44;11.60;;;5.33;;
42972;SDS011;28610;51.214;6.962;2023-04-01T08:02:37;9.23;;;5.80;;
42972;SDS011;28610;51.214;6.962;2023-04-01T08:05:24;10.27;;;5.23;;
42972;SDS011;28610;51.214;6.962;2023-04-01T08:08:13;12.57;;;5.80;;
42972;SDS011;28610;51.214;6.962;2023-04-01T08:11:04;12.47;;;6.40;;
42972;SDS011;28610;51.214;6.962;2023-04-01T08:13:53;8.77;;;5.43;;
42972;SDS011;28610;51.214;6.962;2023-04-01T08:16:45;8.87;;;5.77;;
42972;SDS011;28610;51.214;6.962;2023-04-01T08:19:38;10.00;;;6.00;;
42972;SDS011;28610;51.214;6.962;2023-04-01T08:22:27;9.73;;;5.90;;
42972;SDS011;28610;51.214;6.962;2023-04-01T08:25:14;8.43;;;5.83;;
42972;SDS011;28610;51.214;6.962;2023-04-01T08:28:03;9.07;;;5.60;;
42972;SDS011;28610;51.214;6.962;2023-04-01T08:30:54;9.87;;;6.57;;
42972;SDS011;28610;51.214;6.962;2023-04-01T08:33:41;9.57;;;5.93;;
42972;SDS011;28610;51.214;6.962;2023-04-01T08:36:31;7.47;;;5.83;;
42972;SDS011;28610;51.214;6.962;2023-04-01T08:39:17;8.47;;;5.80;;
42972;SDS011;28610;51.214;6.962;2023-04-01T08:42:09;7.90;;;5.97;;
42972;SDS011;28610;51.214;6.962;2023-04-01T08:45:04;9.93;;;6.00;;
42972;SDS011;28610;51.214;6.962;2023-04-01T08:47:55;8.00;;;5.53;;
42972;SDS011;28610;51.214;6.962;2023-04-01T08:54:11;10.83;;;5.77;;
42972;SDS011;28610;51.214;6.962;2023-04-01T08:57:00;8.93;;;5.50;;
42972;SDS011;28610;51.214;6.962;2023-04-01T08:59:50;7.97;;;5.67;;
42972;SDS011;28610;51.214;6.962;2023-04-01T09:05:46;8.80;;;6.23;;
42972;SDS011;28610;51.214;6.962;2023-04-01T09:08:37;9.10;;;6.37;;
42972;SDS011;28610;51.214;6.962;2023-04-01T09:11:32;9.63;;;6.50;;
42972;SDS011;28610;51.214;6.962;2023-04-01T09:14:40;10.07;;;7.43;;
42972;SDS011;28610;51.214;6.962;2023-04-01T09:17:44;12.93;;;7.60;;
42972;SDS011;28610;51.214;6.962;2023-04-01T09:23:47;12.33;;;7.97;;
42972;SDS011;28610;51.214;6.962;2023-04-01T09:26:42;15.80;;;8.93;;
42972;SDS011;28610;51.214;6.962;2023-04-01T09:29:49;14.07;;;8.80;;
42972;SDS011;28610;51.214;6.962;2023-04-01T09:32:42;13.20;;;8.50;;
42972;SDS011;28610;51.214;6.962;2023-04-01T09:35:36;14.03;;;8.60;;
42972;SDS011;28610;51.214;6.962;2023-04-01T09:38:28;15.03;;;8.87;;
42972;SDS011;28610;51.214;6.962;2023-04-01T09:41:15;17.73;;;10.67;;
42972;SDS011;28610;51.214;6.962;2023-04-01T09:44:09;12.27;;;8.50;;
42972;SDS011;28610;51.214;6.962;2023-04-01T09:47:01;14.70;;;9.53;;
42972;SDS011;28610;51.214;6.962;2023-04-01T09:49:57;14.53;;;8.90;;
42972;SDS011;28610;51.214;6.962;2023-04-01T09:52:51;13.27;;;8.50;;
42972;SDS011;28610;51.214;6.962;2023-04-01T09:55:47;12.80;;;8.33;;
42972;SDS011;28610;51.214;6.962;2023-04-01T09:58:42;14.37;;;8.73;;
42972;SDS011;28610;51.214;6.962;2023-04-01T10:01:38;15.50;;;9.33;;
42972;SDS011;28610;51.214;6.962;2023-04-01T10:04:43;17.87;;;10.57;;
42972;SDS011;28610;51.214;6.962;2023-04-01T10:17:10;19.40;;;12.20;;
42972;SDS011;28610;51.214;6.962;2023-04-01T10:20:01;23.77;;;12.47;;
42972;SDS011;28610;51.214;6.962;2023-04-01T10:22:58;37.43;;;17.00;;
42972;SDS011;28610;51.214;6.962;2023-04-01T10:25:57;30.07;;;15.00;;
42972;SDS011;28610;51.214;6.962;2023-04-01T10:29:00;22.20;;;13.00;;
42972;SDS011;28610;51.214;6.962;2023-04-01T10:31:55;21.20;;;12.27;;
42972;SDS011;28610;51.214;6.962;2023-04-01T10:35:03;20.90;;;12.03;;
42972;SDS011;28610;51.214;6.962;2023-04-01T10:37:58;20.20;;;11.37;;
42972;SDS011;28610;51.214;6.962;2023-04-01T10:40:57;19.93;;;11.50;;
42972;SDS011;28610;51.214;6.962;2023-04-01T10:43:57;17.33;;;10.73;;
42972;SDS011;28610;51.214;6.962;2023-04-01T10:47:06;17.37;;;10.20;;
42972;SDS011;28610;51.214;6.962;2023-04-01T10:50:20;15.53;;;10.70;;
42972;SDS011;28610;51.214;6.962;2023-04-01T10:56:17;14.73;;;9.87;;
42972;SDS011;28610;51.214;6.962;2023-04-01T10:59:20;16.13;;;8.80;;
42972;SDS011;28610;51.214;6.962;2023-04-01T11:05:28;12.20;;;8.50;;
42972;SDS011;28610;51.214;6.962;2023-04-01T11:11:47;11.07;;;7.30;;
42972;SDS011;28610;51.214;6.962;2023-04-01T11:21:00;13.43;;;9.13;;
42972;SDS011;28610;51.214;6.962;2023-04-01T11:24:08;13.70;;;9.07;;
42972;SDS011;28610;51.214;6.962;2023-04-01T11:26:59;14.53;;;9.67;;
42972;SDS011;28610;51.214;6.962;2023-04-01T11:29:54;15.40;;;10.07;;
42972;SDS011;28610;51.214;6.962;2023-04-01T11:32:43;17.33;;;10.20;;
42972;SDS011;28610;51.214;6.962;2023-04-01T11:35:38;21.17;;;12.13;;
42972;SDS011;28610;51.214;6.962;2023-04-01T11:38:40;21.43;;;11.67;;
42972;SDS011;28610;51.214;6.962;2023-04-01T11:41:31;21.30;;;12.33;;
42972;SDS011;28610;51.214;6.962;2023-04-01T11:44:19;20.67;;;11.73;;
42972;SDS011;28610;51.214;6.962;2023-04-01T11:47:10;18.23;;;10.60;;
42972;SDS011;28610;51.214;6.962;2023-04-01T11:50:03;17.97;;;11.33;;
42972;SDS011;28610;51.214;6.962;2023-04-01T11:53:01;19.43;;;11.60;;
42972;SDS011;28610;51.214;6.962;2023-04-01T11:55:53;16.60;;;10.93;;
42972;SDS011;28610;51.214;6.962;2023-04-01T11:58:47;21.03;;;11.60;;
42972;SDS011;28610;51.214;6.962;2023-04-01T12:01:47;18.70;;;11.90;;
42972;SDS011;28610;51.214;6.962;2023-04-01T12:04:41;21.07;;;12.83;;
42972;SDS011;28610;51.214;6.962;2023-04-01T12:07:37;18.17;;;12.17;;
42972;SDS011;28610;51.214;6.962;2023-04-01T12:10:25;19.43;;;11.80;;
42972;SDS011;28610;51.214;6.962;2023-04-01T12:13:16;19.90;;;12.43;;
42972;SDS011;28610;51.214;6.962;2023-04-01T12:16:09;19.93;;;12.20;;
42972;SDS011;28610;51.214;6.962;2023-04-01T12:18:58;20.03;;;12.60;;
42972;SDS011;28610;51.214;6.962;2023-04-01T12:21:45;20.33;;;12.40;;
42972;SDS011;28610;51.214;6.962;2023-04-01T12:27:38;21.17;;;12.10;;
42972;SDS011;28610;51.214;6.962;2023-04-01T12:30:47;19.13;;;12.50;;
42972;SDS011;28610;51.214;6.962;2023-04-01T12:33:44;20.60;;;12.70;;
42972;SDS011;28610;51.214;6.962;2023-04-01T12:36:45;21.40;;;13.33;;
42972;SDS011;28610;51.214;6.962;2023-04-01T12:39:49;19.10;;;12.80;;
42972;SDS011;28610;51.214;6.962;2023-04-01T12:42:50;20.73;;;13.23;;
42972;SDS011;28610;51.214;6.962;2023-04-01T12:45:38;20.33;;;13.23;;
42972;SDS011;28610;51.214;6.962;2023-04-01T12:48:36;20.93;;;13.10;;
42972;SDS011;28610;51.214;6.962;2023-04-01T12:51:38;19.43;;;11.97;;
42972;SDS011;28610;51.214;6.962;2023-04-01T12:57:34;20.37;;;13.67;;
42972;SDS011;28610;51.214;6.962;2023-04-01T13:00:36;19.07;;;12.80;;
42972;SDS011;28610;51.214;6.962;2023-04-01T13:03:30;19.97;;;13.47;;
42972;SDS011;28610;51.214;6.962;2023-04-01T13:06:29;21.03;;;12.93;;
42972;SDS011;28610;51.214;6.962;2023-04-01T13:09:21;20.90;;;13.53;;
42972;SDS011;28610;51.214;6.962;2023-04-01T13:12:23;19.17;;;13.07;;
42972;SDS011;28610;51.214;6.962;2023-04-01T13:18:25;19.97;;;12.77;;
42972;SDS011;28610;51.214;6.962;2023-04-01T13:21:15;19.10;;;11.87;;
42972;SDS011;28610;51.214;6.962;2023-04-01T13:24:04;16.83;;;11.93;;
42972;SDS011;28610;51.214;6.962;2023-04-01T13:26:54;16.50;;;11.67;;
42972;SDS011;28610;51.214;6.962;2023-04-01T13:29:41;15.27;;;10.70;;
42972;SDS011;28610;51.214;6.962;2023-04-01T13:32:29;16.20;;;10.40;;
42972;SDS011;28610;51.214;6.962;2023-04-01T13:35:20;16.17;;;11.20;;
42972;SDS011;28610;51.214;6.962;2023-04-01T13:38:17;16.23;;;10.90;;
42972;SDS011;28610;51.214;6.962;2023-04-01T13:41:11;16.17;;;11.53;;
42972;SDS011;28610;51.214;6.962;2023-04-01T13:43:58;16.80;;;10.80;;
42972;SDS011;28610;51.214;6.962;2023-04-01T13:46:53;18.10;;;11.57;;
42972;SDS011;28610;51.214;6.962;2023-04-01T13:52:46;19.93;;;11.60;;
42972;SDS011;28610;51.214;6.962;2023-04-01T13:55:39;16.53;;;11.93;;
42972;SDS011;28610;51.214;6.962;2023-04-01T13:58:34;14.80;;;10.57;;
42972;SDS011;28610;51.214;6.962;2023-04-01T14:01:25;18.23;;;11.80;;
42972;SDS011;28610;51.214;6.962;2023-04-01T14:07:18;17.40;;;12.17;;
42972;SDS011;28610;51.214;6.962;2023-04-01T14:10:13;16.73;;;11.17;;
42972;SDS011;28610;51.214;6.962;2023-04-01T14:13:03;18.20;;;10.63;;
42972;SDS011;28610;51.214;6.962;2023-04-01T14:16:10;16.57;;;11.60;;
42972;SDS011;28610;51.214;6.962;2023-04-01T14:19:03;16.57;;;10.93;;
42972;SDS011;28610;51.214;6.962;2023-04-01T14:21:55;15.13;;;10.03;;
42972;SDS011;28610;51.214;6.962;2023-04-01T14:24:58;15.67;;;10.73;;
42972;SDS011;28610;51.214;6.962;2023-04-01T14:27:54;13.60;;;10.03;;
42972;SDS011;28610;51.214;6.962;2023-04-01T14:30:45;15.33;;;10.47;;
42972;SDS011;28610;51.214;6.962;2023-04-01T14:33:40;16.73;;;10.90;;
42972;SDS011;28610;51.214;6.962;2023-04-01T14:39:38;13.27;;;10.30;;
42972;SDS011;28610;51.214;6.962;2023-04-01T14:42:36;12.73;;;9.70;;
42972;SDS011;28610;51.214;6.962;2023-04-01T14:45:41;14.57;;;10.00;;
42972;SDS011;28610;51.214;6.962;2023-04-01T14:48:30;14.07;;;10.20;;
42972;SDS011;28610;51.214;6.962;2023-04-01T14:51:20;13.90;;;10.27;;
42972;SDS011;28610;51.214;6.962;2023-04-01T14:54:08;15.23;;;11.00;;
42972;SDS011;28610;51.214;6.962;2023-04-01T14:57:10;15.27;;;10.60;;
42972;SDS011;28610;51.214;6.962;2023-04-01T14:59:59;14.87;;;10.40;;
42972;SDS011;28610;51.214;6.962;2023-04-01T15:02:47;16.63;;;10.60;;
42972;SDS011;28610;51.214;6.962;2023-04-01T15:05:39;12.93;;;9.87;;
42972;SDS011;28610;51.214;6.962;2023-04-01T15:08:30;12.60;;;9.67;;
42972;SDS011;28610;51.214;6.962;2023-04-01T15:11:25;12.13;;;8.90;;
42972;SDS011;28610;51.214;6.962;2023-04-01T15:14:20;11.10;;;8.73;;
42972;SDS011;28610;51.214;6.962;2023-04-01T15:17:21;11.43;;;9.03;;
42972;SDS011;28610;51.214;6.962;2023-04-01T15:20:16;13.17;;;9.03;;
42972;SDS011;28610;51.214;6.962;2023-04-01T15:23:09;11.40;;;8.50;;
42972;SDS011;28610;51.214;6.962;2023-04-01T15:29:09;12.00;;;8.70;;
42972;SDS011;28610;51.214;6.962;2023-04-01T15:32:00;13.90;;;8.90;;
42972;SDS011;28610;51.214;6.962;2023-04-01T15:34:50;14.43;;;9.67;;
42972;SDS011;28610;51.214;6.962;2023-04-01T15:37:39;12.43;;;8.90;;
42972;SDS011;28610;51.214;6.962;2023-04-01T15:40:31;13.90;;;9.17;;
42972;SDS011;28610;51.214;6.962;2023-04-01T15:43:22;15.07;;;9.70;;
42972;SDS011;28610;51.214;6.962;2023-04-01T15:46:12;14.20;;;9.37;;
42972;SDS011;28610;51.214;6.962;2023-04-01T15:52:05;13.97;;;9.60;;
42972;SDS011;28610;51.214;6.962;2023-04-01T15:54:55;13.13;;;8.93;;
42972;SDS011;28610;51.214;6.962;2023-04-01T15:57:48;14.27;;;8.57;;
42972;SDS011;28610;51.214;6.962;2023-04-01T16:00:41;12.77;;;8.50;;
42972;SDS011;28610;51.214;6.962;2023-04-01T16:03:34;14.97;;;9.50;;
42972;SDS011;28610;51.214;6.962;2023-04-01T16:06:27;12.93;;;8.97;;
42972;SDS011;28610;51.214;6.962;2023-04-01T16:12:24;16.60;;;9.80;;
42972;SDS011;28610;51.214;6.962;2023-04-01T16:15:19;18.03;;;10.10;;
42972;SDS011;28610;51.214;6.962;2023-04-01T16:18:09;16.83;;;10.10;;
42972;SDS011;28610;51.214;6.962;2023-04-01T16:21:00;16.37;;;9.70;;
42972;SDS011;28610;51.214;6.962;2023-04-01T16:23:47;18.03;;;10.50;;
42972;SDS011;28610;51.214;6.962;2023-04-01T16:26:34;16.60;;;9.77;;
42972;SDS011;28610;51.214;6.962;2023-04-01T16:29:27;12.20;;;9.17;;
42972;SDS011;28610;51.214;6.962;2023-04-01T16:32:17;14.50;;;9.27;;
42972;SDS011;28610;51.214;6.962;2023-04-01T16:35:15;14.17;;;9.17;;
42972;SDS011;28610;51.214;6.962;2023-04-01T16:38:05;12.33;;;8.83;;
42972;SDS011;28610;51.214;6.962;2023-04-01T16:40:59;11.30;;;8.10;;
42972;SDS011;28610;51.214;6.962;2023-04-01T16:43:46;12.70;;;8.70;;
42972;SDS011;28610;51.214;6.962;2023-04-01T16:46:35;15.13;;;9.83;;
42972;SDS011;28610;51.214;6.962;2023-04-01T16:49:25;14.87;;;9.80;;
42972;SDS011;28610;51.214;6.962;2023-04-01T16:52:13;17.00;;;10.80;;
42972;SDS011;28610;51.214;6.962;2023-04-01T16:55:02;16.60;;;10.50;;
42972;SDS011;28610;51.214;6.962;2023-04-01T16:57:49;20.60;;;11.37;;
42972;SDS011;28610;51.214;6.962;2023-04-01T17:00:36;18.47;;;11.17;;
42972;SDS011;28610;51.214;6.962;2023-04-01T17:03:25;16.83;;;11.23;;
42972;SDS011;28610;51.214;6.962;2023-04-01T17:06:17;18.70;;;11.03;;
42972;SDS011;28610;51.214;6.962;2023-04-01T17:09:09;18.20;;;10.63;;
42972;SDS011;28610;51.214;6.962;2023-04-01T17:12:03;18.33;;;11.63;;
42972;SDS011;28610;51.214;6.962;2023-04-01T17:14:54;17.43;;;10.67;;
42972;SDS011;28610;51.214;6.962;2023-04-01T17:17:45;22.70;;;15.07;;
42972;SDS011;28610;51.214;6.962;2023-04-01T17:20:40;19.50;;;11.43;;
42972;SDS011;28610;51.214;6.962;2023-04-01T17:23:29;18.30;;;11.80;;
42972;SDS011;28610;51.214;6.962;2023-04-01T17:26:20;17.73;;;11.53;;
42972;SDS011;28610;51.214;6.962;2023-04-01T17:29:12;17.60;;;10.87;;
42972;SDS011;28610;51.214;6.962;2023-04-01T17:32:03;18.97;;;11.70;;
42972;SDS011;28610;51.214;6.962;2023-04-01T17:34:53;22.50;;;12.27;;
42972;SDS011;28610;51.214;6.962;2023-04-01T17:37:45;20.53;;;12.47;;
42972;SDS011;28610;51.214;6.962;2023-04-01T17:40:38;20.40;;;12.27;;
42972;SDS011;28610;51.214;6.962;2023-04-01T17:43:29;19.43;;;12.23;;
42972;SDS011;28610;51.214;6.962;2023-04-01T17:46:24;25.57;;;14.20;;
42972;SDS011;28610;51.214;6.962;2023-04-01T17:49:18;19.87;;;12.60;;
42972;SDS011;28610;51.214;6.962;2023-04-01T17:52:06;21.70;;;12.67;;
42972;SDS011;28610;51.214;6.962;2023-04-01T17:54:57;18.67;;;12.33;;
42972;SDS011;28610;51.214;6.962;2023-04-01T17:57:46;18.83;;;11.80;;
42972;SDS011;28610;51.214;6.962;2023-04-01T18:00:33;19.40;;;12.03;;